Time;durP1;ratioP1;P1;durP2;ratioP2;P2;SDS_P1;SDS_P2;PMS_P1;PMS_P2;Temp;Humidity;BMP_temperature;BMP_pressure;BME280_temperature;BME280_humidity;BME280_pressure;Samples;Min_cycle;Max_cycle;Signal;HPM_P1;HPM_P2
2022/04/14 00:01:36;;;;;;;16.85;3.47;;;28.30;15.30;;;;;;5052837;28;20082;-67
2022/04/14 00:04:03;;;;;;;18.98;3.58;;;28.30;14.50;;;;;;5056338;28;20115;-66
2022/04/14 00:06:30;;;;;;;21.55;3.60;;;28.20;14.50;;;;;;5058450;28;20078;-66
2022/04/14 00:08:56;;;;;;;147.30;10.63;;;28.20;14.90;;;;;;5055957;28;20094;-68
2022/04/14 00:11:22;;;;;;;105.82;8.32;;;28.30;15.40;;;;;;5072850;28;20179;-65
2022/04/14 00:13:49;;;;;;;221.40;15.48;;;28.30;15.10;;;;;;5054800;28;20528;-66
2022/04/14 00:16:15;;;;;;;63.70;6.82;;;28.30;15.30;;;;;;5052341;28;20088;-68
2022/04/14 00:18:42;;;;;;;13.75;3.33;;;28.20;15.40;;;;;;5053751;28;20099;-67
2022/04/14 00:21:08;;;;;;;30.67;4.10;;;28.30;15.80;;;;;;5052569;28;20076;-64
2022/04/14 00:23:34;;;;;;;102.32;7.43;;;28.40;16.10;;;;;;5070789;28;20089;-65
2022/04/14 00:26:01;;;;;;;23.85;5.05;;;28.40;15.40;;;;;;5058154;28;20070;-67
2022/04/14 00:28:27;;;;;;;16.15;3.67;;;28.30;14.70;;;;;;5071188;28;20077;-69
2022/04/14 00:30:54;;;;;;;36.03;4.05;;;28.10;14.80;;;;;;5070955;28;20113;-73
2022/04/14 00:33:20;;;;;;;138.93;8.63;;;28.00;14.40;;;;;;5053433;28;20087;-69
2022/04/14 00:35:47;;;;;;;65.32;6.80;;;28.00;14.60;;;;;;5067844;28;20073;-72
2022/04/14 00:38:13;;;;;;;97.68;7.25;;;27.90;14.70;;;;;;5054374;28;20079;-74
2022/04/14 00:40:39;;;;;;;52.35;5.32;;;27.90;14.80;;;;;;5039925;28;20066;-71
2022/04/14 00:43:06;;;;;;;582.67;35.05;;;27.90;15.00;;;;;;5052468;28;20070;-70
2022/04/14 00:45:33;;;;;;;496.58;34.25;;;27.80;14.90;;;;;;5050857;28;20550;-74
2022/04/14 00:47:59;;;;;;;53.63;6.00;;;27.80;14.80;;;;;;5052469;28;20071;-72
2022/04/14 00:50:26;;;;;;;278.58;11.18;;;27.70;15.10;;;;;;5058745;28;20531;-68
2022/04/14 00:52:55;;;;;;;45.65;5.80;;;27.60;15.10;;;;;;5052270;28;20080;-75
2022/04/14 00:55:21;;;;;;;487.95;36.53;;;27.30;15.50;;;;;;5051905;28;20090;-67
2022/04/14 00:57:48;;;;;;;102.90;10.27;;;27.30;15.60;;;;;;5070069;28;20550;-71
2022/04/14 01:00:14;;;;;;;49.60;5.45;;;27.30;15.80;;;;;;5056547;28;20517;-68
2022/04/14 01:02:41;;;;;;;25.17;4.70;;;27.30;15.00;;;;;;5070720;28;20083;-69
2022/04/14 01:05:09;;;;;;;25.85;4.65;;;27.20;12.50;;;;;;5053311;28;20503;-67
2022/04/14 01:07:36;;;;;;;37.13;4.45;;;27.00;12.90;;;;;;5052504;28;20090;-66
2022/04/14 01:10:04;;;;;;;50.85;5.07;;;26.90;12.80;;;;;;5069670;28;20630;-66
2022/04/14 01:12:32;;;;;;;30.60;5.03;;;26.90;13.10;;;;;;5069550;28;20600;-63
2022/04/14 01:14:59;;;;;;;20.63;4.35;;;26.70;13.60;;;;;;5069759;28;20075;-64
2022/04/14 01:17:25;;;;;;;17.85;3.75;;;26.70;13.40;;;;;;5036446;28;20118;-68
2022/04/14 01:19:52;;;;;;;32.08;4.80;;;26.70;13.00;;;;;;5051488;28;20213;-65
2022/04/14 01:22:28;;;;;;;25.23;4.07;;;26.70;13.30;;;;;;5034280;28;20068;-65
2022/04/14 01:24:55;;;;;;;;;;;26.70;12.90;;;;;;5051223;28;21003;-63
2022/04/14 01:27:23;;;;;;;24.50;3.65;;;26.50;13.30;;;;;;5050461;28;19967;-64
2022/04/14 01:29:52;;;;;;;19.83;4.07;;;26.40;13.90;;;;;;5069663;28;20183;-64
2022/04/14 01:32:20;;;;;;;26.50;4.47;;;26.20;14.80;;;;;;5069844;28;20118;-64
2022/04/14 01:34:46;;;;;;;27.08;4.30;;;25.90;15.30;;;;;;5050278;28;20166;-64
2022/04/14 01:37:13;;;;;;;23.23;4.25;;;25.90;16.20;;;;;;5068981;28;20558;-64
2022/04/14 01:39:40;;;;;;;24.52;4.88;;;25.80;16.50;;;;;;5054568;28;20102;-65
2022/04/14 01:42:09;;;;;;;26.50;4.45;;;25.70;16.50;;;;;;5050231;28;20068;-65
2022/04/14 01:44:35;;;;;;;21.67;4.47;;;25.50;16.70;;;;;;5068969;28;20103;-64
2022/04/14 01:47:02;;;;;;;25.55;4.15;;;25.40;16.90;;;;;;5055554;28;20084;-64
2022/04/14 01:49:29;;;;;;;25.15;4.40;;;25.20;17.10;;;;;;5069565;28;20068;-65
2022/04/14 01:51:55;;;;;;;19.40;4.20;;;25.20;17.50;;;;;;5061904;28;20090;-66
2022/04/14 01:54:22;;;;;;;20.15;3.85;;;25.10;17.80;;;;;;5069201;28;20092;-65
2022/04/14 01:56:49;;;;;;;15.13;4.03;;;24.90;17.80;;;;;;5061153;28;20183;-64
2022/04/14 01:59:15;;;;;;;24.17;4.28;;;24.90;17.90;;;;;;5068763;28;20084;-65
2022/04/14 02:01:42;;;;;;;16.38;4.15;;;24.70;18.30;;;;;;5054784;28;20157;-64
2022/04/14 02:04:08;;;;;;;23.58;4.10;;;24.60;18.50;;;;;;5050716;28;20142;-68
2022/04/14 02:06:35;;;;;;;20.73;4.00;;;24.50;18.70;;;;;;5049897;28;20087;-67
2022/04/14 02:09:01;;;;;;;20.15;4.20;;;24.40;19.10;;;;;;5069808;28;20076;-67
2022/04/14 02:11:28;;;;;;;17.73;4.40;;;24.30;19.40;;;;;;5049985;28;20076;-65
2022/04/14 02:13:54;;;;;;;32.75;4.97;;;24.20;19.70;;;;;;5050276;28;20076;-67
2022/04/14 02:16:21;;;;;;;28.70;4.78;;;24.10;19.90;;;;;;5048516;28;20092;-68
2022/04/14 02:18:47;;;;;;;28.40;4.55;;;24.00;20.10;;;;;;5051375;28;20142;-66
2022/04/14 02:21:13;;;;;;;23.85;4.95;;;23.90;20.20;;;;;;5050283;28;20079;-67
2022/04/14 02:23:40;;;;;;;27.52;5.97;;;23.90;20.40;;;;;;5050116;28;20088;-67
2022/04/14 02:26:06;;;;;;;30.45;5.78;;;23.80;20.70;;;;;;5069922;28;20088;-68
2022/04/14 02:28:33;;;;;;;28.15;5.78;;;23.70;20.90;;;;;;5070189;28;20071;-67
2022/04/14 02:30:59;;;;;;;25.30;5.82;;;23.70;21.00;;;;;;5050977;28;20167;-67
2022/04/14 02:33:26;;;;;;;32.47;5.97;;;23.60;21.20;;;;;;5050388;28;20080;-67
2022/04/14 02:35:52;;;;;;;25.42;5.78;;;23.60;21.40;;;;;;5051247;28;20558;-68
2022/04/14 02:38:19;;;;;;;35.78;5.15;;;23.60;21.40;;;;;;5050377;28;20519;-66
2022/04/14 02:40:45;;;;;;;36.35;5.55;;;23.60;21.40;;;;;;5069185;28;20482;-65
2022/04/14 02:43:11;;;;;;;36.83;5.40;;;23.60;21.50;;;;;;5055207;28;20117;-69
2022/04/14 02:45:38;;;;;;;33.55;6.60;;;23.50;21.50;;;;;;5070660;28;20072;-64
2022/04/14 02:48:05;;;;;;;35.65;6.13;;;23.40;21.60;;;;;;5062211;28;20193;-67
2022/04/14 02:50:31;;;;;;;25.15;4.75;;;23.40;21.60;;;;;;5072833;28;20443;-66
2022/04/14 02:52:58;;;;;;;32.25;5.97;;;23.30;21.60;;;;;;5057601;28;20133;-68
2022/04/14 02:55:24;;;;;;;35.53;5.78;;;23.20;21.70;;;;;;5053626;28;20091;-66
2022/04/14 02:57:51;;;;;;;36.40;5.22;;;23.20;21.90;;;;;;5055009;28;20555;-67
2022/04/14 03:00:17;;;;;;;29.75;6.25;;;23.00;22.00;;;;;;5072451;28;20069;-68
2022/04/14 03:02:44;;;;;;;39.42;6.45;;;22.90;21.90;;;;;;5054301;28;20068;-66
2022/04/14 03:05:11;;;;;;;45.97;6.60;;;22.90;22.00;;;;;;5052685;28;20116;-69
2022/04/14 03:07:38;;;;;;;54.95;8.10;;;22.90;21.90;;;;;;5053814;28;20083;-68
2022/04/14 03:10:05;;;;;;;42.40;8.38;;;22.90;21.70;;;;;;5053385;28;20073;-69
2022/04/14 03:12:50;;;;;;;52.90;7.32;;;22.80;21.60;;;;;;5036363;28;20565;-65
2022/04/14 03:15:16;;;;;;;44.03;7.60;;;22.90;21.50;;;;;;5052815;28;20436;-66
2022/04/14 03:17:43;;;;;;;64.95;9.45;;;22.80;21.40;;;;;;5053662;28;20173;-66
2022/04/14 03:20:11;;;;;;;58.20;9.93;;;22.80;21.40;;;;;;5053814;28;20068;-67
2022/04/14 03:22:37;;;;;;;44.13;8.48;;;22.80;21.70;;;;;;5054050;28;20473;-70
2022/04/14 03:25:08;;;;;;;55.75;8.40;;;22.70;21.70;;;;;;5053088;28;20439;-65
2022/04/14 03:27:37;;;;;;;52.45;8.23;;;22.60;21.80;;;;;;5074197;28;20072;-69
2022/04/14 03:30:05;;;;;;;37.88;7.18;;;22.50;21.90;;;;;;5051695;28;20088;-66
2022/04/14 03:32:31;;;;;;;48.65;7.40;;;22.40;21.90;;;;;;5071983;28;20554;-65
2022/04/14 03:35:03;;;;;;;51.72;7.97;;;22.40;22.10;;;;;;5052972;28;20756;-68
2022/04/14 03:37:29;;;;;;;39.15;7.25;;;22.30;22.20;;;;;;5053115;28;20080;-66
2022/04/14 03:39:56;;;;;;;41.47;8.20;;;22.20;22.20;;;;;;5052011;28;20069;-68
2022/04/14 03:42:22;;;;;;;43.17;7.88;;;22.30;22.30;;;;;;5052984;28;20076;-66
2022/04/14 03:44:48;;;;;;;40.65;7.75;;;22.10;22.30;;;;;;5071525;28;20079;-66
2022/04/14 03:47:15;;;;;;;47.28;8.48;;;22.10;22.50;;;;;;5052833;28;20115;-64
2022/04/14 03:49:41;;;;;;;46.35;9.00;;;22.10;22.60;;;;;;5063040;28;20073;-68
2022/04/14 03:52:08;;;;;;;49.50;9.82;;;22.10;22.70;;;;;;5049466;28;20160;-67
2022/04/14 03:54:34;;;;;;;52.53;9.38;;;22.00;22.80;;;;;;5070661;28;20510;-69
2022/04/14 03:57:01;;;;;;;72.20;9.93;;;22.10;23.10;;;;;;5051454;28;20084;-67
2022/04/14 03:59:27;;;;;;;56.72;8.32;;;22.00;23.20;;;;;;5060698;28;20747;-66
2022/04/14 04:01:53;;;;;;;61.83;9.13;;;22.00;23.20;;;;;;5059518;28;20078;-65
2022/04/14 04:04:20;;;;;;;51.72;8.70;;;21.90;23.30;;;;;;5052060;28;20099;-66
2022/04/14 04:06:46;;;;;;;60.22;8.60;;;21.80;23.50;;;;;;5050996;28;20461;-65
2022/04/14 04:09:13;;;;;;;54.13;8.05;;;21.80;23.60;;;;;;5051343;28;20175;-64
2022/04/14 04:11:39;;;;;;;49.80;7.82;;;21.70;23.90;;;;;;5051673;28;20073;-68
2022/04/14 04:14:06;;;;;;;47.92;8.60;;;21.70;23.60;;;;;;5051798;28;20075;-66
2022/04/14 04:16:33;;;;;;;67.95;9.15;;;21.70;23.60;;;;;;5051098;28;20096;-66
2022/04/14 04:18:59;;;;;;;59.45;8.82;;;21.70;23.70;;;;;;5050942;28;20282;-66
2022/04/14 04:21:27;;;;;;;62.05;10.80;;;21.60;23.70;;;;;;5050065;28;20080;-65
2022/04/14 04:23:53;;;;;;;72.18;12.15;;;21.50;23.90;;;;;;5050340;28;20088;-65
2022/04/14 04:26:20;;;;;;;73.15;10.73;;;21.50;23.90;;;;;;5051833;28;20148;-63
2022/04/14 04:28:46;;;;;;;58.35;11.18;;;21.50;23.90;;;;;;5050961;28;20123;-64
2022/04/14 04:31:12;;;;;;;65.22;10.70;;;21.40;24.00;;;;;;5051649;28;20097;-64
2022/04/14 04:33:39;;;;;;;49.67;10.02;;;21.40;24.20;;;;;;5070374;28;20082;-64
2022/04/14 04:36:07;;;;;;;52.88;9.75;;;21.40;24.10;;;;;;5069463;28;20521;-64
2022/04/14 04:38:33;;;;;;;50.25;9.80;;;21.30;24.30;;;;;;5051145;28;20520;-66
2022/04/14 04:41:00;;;;;;;62.25;10.18;;;21.30;24.40;;;;;;5050118;28;20560;-65
2022/04/14 04:43:27;;;;;;;66.57;11.02;;;21.30;24.40;;;;;;5051530;28;20120;-63
2022/04/14 04:45:53;;;;;;;75.82;11.50;;;21.30;24.60;;;;;;5063715;28;20065;-66
2022/04/14 04:48:19;;;;;;;65.65;11.07;;;21.10;24.60;;;;;;5069526;28;20075;-68
2022/04/14 04:50:46;;;;;;;70.03;11.70;;;21.10;24.40;;;;;;5069728;28;20075;-66
2022/04/14 04:53:12;;;;;;;68.20;11.27;;;21.10;24.40;;;;;;5050994;28;20118;-66
2022/04/14 04:55:38;;;;;;;69.72;10.95;;;21.10;24.40;;;;;;5050912;28;20102;-65
2022/04/14 04:58:05;;;;;;;62.25;9.10;;;21.10;24.80;;;;;;5069130;28;20120;-66
2022/04/14 05:00:32;;;;;;;54.65;9.68;;;21.00;24.90;;;;;;5050969;28;20076;-65
2022/04/14 05:02:58;;;;;;;58.42;10.02;;;21.00;25.10;;;;;;5050200;28;20228;-64
2022/04/14 05:05:25;;;;;;;77.05;9.70;;;20.80;25.40;;;;;;5051499;28;20155;-65
2022/04/14 05:07:51;;;;;;;44.10;8.05;;;20.80;25.50;;;;;;5050331;28;20070;-64
2022/04/14 05:10:18;;;;;;;58.83;9.73;;;20.70;25.80;;;;;;5050018;28;20084;-63
2022/04/14 05:12:44;;;;;;;55.80;9.73;;;20.70;26.00;;;;;;5050560;28;20083;-67
2022/04/14 05:15:11;;;;;;;60.40;11.07;;;20.60;25.90;;;;;;5068678;28;20076;-65
2022/04/14 05:17:37;;;;;;;81.57;10.68;;;20.60;26.10;;;;;;5051898;28;20144;-65
2022/04/14 05:20:04;;;;;;;68.32;12.45;;;20.50;26.10;;;;;;5054113;28;20072;-65
2022/04/14 05:22:30;;;;;;;71.93;11.48;;;20.50;26.00;;;;;;5069044;28;20071;-64
2022/04/14 05:24:56;;;;;;;;;;;20.40;25.90;;;;;;5050824;28;20489;-66
2022/04/14 05:27:23;;;;;;;107.22;13.30;;;20.40;26.20;;;;;;5049755;28;20916;-67
2022/04/14 05:29:49;;;;;;;83.35;13.32;;;20.30;26.30;;;;;;5069038;28;20092;-64
2022/04/14 05:32:15;;;;;;;78.93;11.27;;;20.30;26.40;;;;;;5050037;28;20210;-63
2022/04/14 05:34:41;;;;;;;;;;;20.20;26.20;;;;;;5069717;28;20077;-63
2022/04/14 05:37:08;;;;;;;73.15;12.77;;;20.20;26.40;;;;;;5052957;28;19999;-69
2022/04/14 05:39:34;;;;;;;;;;;20.10;26.10;;;;;;5053040;28;20411;-63
2022/04/14 05:42:00;;;;;;;212.60;21.95;;;20.10;26.20;;;;;;5050767;28;19957;-65
2022/04/14 05:44:27;;;;;;;88.47;14.48;;;20.00;26.30;;;;;;5069095;28;20194;-67
2022/04/14 05:46:53;;;;;;;95.25;15.15;;;20.00;26.40;;;;;;5051974;28;20080;-63
2022/04/14 05:49:20;;;;;;;;;;;19.90;26.90;;;;;;5069916;28;20077;-64
2022/04/14 05:51:47;;;;;;;81.78;16.38;;;19.80;27.00;;;;;;5054598;28;20339;-62
2022/04/14 05:54:16;;;;;;;84.55;16.13;;;19.70;27.00;;;;;;5068868;28;20080;-63
2022/04/14 05:56:43;;;;;;;92.78;21.25;;;19.70;27.40;;;;;;5068620;28;20123;-68
2022/04/14 05:59:16;;;;;;;95.10;23.88;;;19.70;27.70;;;;;;5061080;28;20092;-63
2022/04/14 06:01:46;;;;;;;97.63;24.90;;;19.60;27.90;;;;;;5050975;28;20065;-63
2022/04/14 06:04:13;;;;;;;89.57;23.48;;;19.60;28.10;;;;;;5051262;28;20096;-67
2022/04/14 06:06:40;;;;;;;114.22;29.35;;;19.70;28.60;;;;;;5068396;28;20166;-64
2022/04/14 06:09:06;;;;;;;100.35;28.75;;;19.70;28.50;;;;;;5050481;28;20073;-64
2022/04/14 06:11:33;;;;;;;85.95;26.30;;;19.70;28.40;;;;;;5050764;28;20065;-64
2022/04/14 06:13:59;;;;;;;98.15;32.22;;;19.60;28.20;;;;;;5052484;28;21620;-64
2022/04/14 06:16:25;;;;;;;99.03;29.58;;;19.50;28.10;;;;;;5055380;28;20098;-64
2022/04/14 06:18:52;;;;;;;98.53;29.77;;;19.50;28.30;;;;;;5054488;28;20083;-64
2022/04/14 06:21:18;;;;;;;98.80;29.45;;;19.40;28.30;;;;;;5058767;28;20168;-69
2022/04/14 06:23:45;;;;;;;107.32;28.38;;;19.40;28.40;;;;;;5064361;28;20187;-64
2022/04/14 06:26:11;;;;;;;84.80;22.20;;;19.20;28.60;;;;;;5063254;28;20083;-66
2022/04/14 06:28:38;;;;;;;76.18;19.52;;;19.20;28.60;;;;;;5061094;28;20081;-65
2022/04/14 06:31:05;;;;;;;74.18;17.17;;;19.20;28.90;;;;;;5075555;28;20161;-65
2022/04/14 06:33:31;;;;;;;49.25;14.02;;;19.10;29.00;;;;;;5075002;28;20536;-63
2022/04/14 06:36:01;;;;;;;63.22;14.43;;;19.20;29.10;;;;;;5060472;28;20089;-65
2022/04/14 06:38:27;;;;;;;62.15;13.30;;;19.10;29.50;;;;;;5061578;28;20774;-65
2022/04/14 06:40:54;;;;;;;;;;;19.20;29.50;;;;;;5063266;28;20139;-69
2022/04/14 06:43:21;;;;;;;69.43;14.03;;;19.10;29.50;;;;;;5062733;28;20321;-69
2022/04/14 06:45:47;;;;;;;64.88;14.02;;;19.00;29.70;;;;;;5075130;28;20069;-66
2022/04/14 06:48:14;;;;;;;55.88;13.18;;;19.00;30.00;;;;;;5075046;28;20113;-67
2022/04/14 06:50:41;;;;;;;57.83;13.75;;;19.10;29.90;;;;;;5060011;28;20078;-62
2022/04/14 06:53:07;;;;;;;81.20;14.20;;;19.00;30.10;;;;;;5061394;28;20081;-67
2022/04/14 06:55:35;;;;;;;68.07;13.75;;;19.10;30.50;;;;;;5060789;28;20491;-68
2022/04/14 06:58:02;;;;;;;79.68;14.77;;;18.90;30.00;;;;;;5060562;28;20079;-65
2022/04/14 07:00:29;;;;;;;55.83;12.80;;;19.00;30.50;;;;;;5062176;28;20546;-64
2022/04/14 07:02:57;;;;;;;64.05;14.20;;;19.00;30.40;;;;;;5060768;28;20084;-64
2022/04/14 07:05:23;;;;;;;60.35;13.52;;;19.00;30.40;;;;;;5061993;28;20109;-64
2022/04/14 07:07:50;;;;;;;75.13;15.07;;;19.00;31.50;;;;;;5075251;28;21040;-64
2022/04/14 07:10:17;;;;;;;64.50;14.35;;;18.90;30.70;;;;;;5062737;28;20492;-65
2022/04/14 07:12:44;;;;;;;;;;;18.90;31.00;;;;;;5062089;28;20068;-67
2022/04/14 07:15:11;;;;;;;56.67;14.60;;;18.80;31.00;;;;;;5060645;28;19957;-66
2022/04/14 07:17:38;;;;;;;63.03;14.60;;;18.70;31.00;;;;;;5060603;28;20104;-65
2022/04/14 07:20:09;;;;;;;68.35;14.57;;;18.70;31.50;;;;;;5060304;28;20072;-64
2022/04/14 07:22:46;;;;;;;65.32;14.82;;;18.60;31.70;;;;;;5061963;28;20076;-63
2022/04/14 07:25:13;;;;;;;79.18;19.00;;;18.60;32.00;;;;;;5062896;28;20069;-63
2022/04/14 07:27:40;;;;;;;112.18;23.27;;;18.70;32.00;;;;;;5074978;28;20069;-65
2022/04/14 07:30:07;;;;;;;79.38;25.60;;;18.70;32.30;;;;;;5063223;28;20073;-64
2022/04/14 07:32:38;;;;;;;99.78;25.38;;;18.70;32.20;;;;;;5040124;28;20073;-65
2022/04/14 07:35:06;;;;;;;85.90;24.73;;;18.60;31.90;;;;;;5057700;28;20073;-64
2022/04/14 07:37:33;;;;;;;95.57;24.75;;;18.60;32.10;;;;;;5071231;28;21073;-64
2022/04/14 07:40:00;;;;;;;86.07;24.55;;;18.60;32.20;;;;;;5056869;28;20065;-64
2022/04/14 07:42:39;;;;;;;78.25;22.88;;;18.50;31.90;;;;;;5057708;28;20065;-67
2022/04/14 07:45:07;;;;;;;78.60;21.45;;;18.50;31.90;;;;;;5070419;28;20075;-65
2022/04/14 07:47:34;;;;;;;86.22;21.00;;;18.40;31.50;;;;;;5056839;28;20103;-63
2022/04/14 07:50:00;;;;;;;72.75;20.13;;;18.30;31.50;;;;;;5059871;28;20164;-65
2022/04/14 07:52:27;;;;;;;80.00;20.42;;;18.10;31.20;;;;;;5058247;28;20089;-64
2022/04/14 07:54:53;;;;;;;92.18;22.33;;;18.10;31.70;;;;;;5060107;28;20130;-64
2022/04/14 07:57:19;;;;;;;;;;;18.00;32.60;;;;;;5059522;28;20550;-63
2022/04/14 07:59:46;;;;;;;77.20;20.00;;;18.10;33.00;;;;;;5059372;28;19956;-64
2022/04/14 08:02:12;;;;;;;78.82;18.42;;;18.10;33.40;;;;;;5071141;28;20080;-65
2022/04/14 08:04:39;;;;;;;82.72;18.70;;;18.00;33.40;;;;;;5056389;28;20112;-66
2022/04/14 08:07:05;;;;;;;;;;;17.90;33.30;;;;;;5071406;28;20084;-64
2022/04/14 08:09:32;;;;;;;72.10;19.50;;;17.90;34.10;;;;;;5058017;28;20123;-63
2022/04/14 08:11:58;;;;;;;62.65;19.48;;;17.80;34.10;;;;;;5057120;28;20103;-68
2022/04/14 08:14:24;;;;;;;89.20;21.15;;;17.70;34.30;;;;;;5070200;28;20603;-63
2022/04/14 08:16:50;;;;;;;;;;;17.70;35.00;;;;;;5071283;28;20911;-64
2022/04/14 08:19:17;;;;;;;80.20;19.35;;;17.50;35.20;;;;;;5057101;28;20009;-64
2022/04/14 08:21:45;;;;;;;;;;;17.60;35.60;;;;;;5057832;28;20084;-62
2022/04/14 08:24:11;;;;;;;80.55;20.98;;;17.40;35.50;;;;;;5057136;28;19957;-66
2022/04/14 08:26:38;;;;;;;87.22;19.65;;;17.50;36.30;;;;;;5058299;28;20127;-63
2022/04/14 08:29:04;;;;;;;;;;;17.40;36.20;;;;;;5055963;28;20164;-64
2022/04/14 08:31:33;;;;;;;81.78;18.92;;;17.40;36.30;;;;;;5055813;28;20043;-63
2022/04/14 08:34:01;;;;;;;75.45;18.38;;;17.40;36.00;;;;;;5070369;28;20087;-66
2022/04/14 08:36:27;;;;;;;75.90;18.25;;;17.40;35.80;;;;;;5070533;28;20104;-64
2022/04/14 08:38:54;;;;;;;;;;;17.50;36.10;;;;;;5056741;28;20217;-63
2022/04/14 08:41:24;;;;;;;80.72;19.08;;;17.50;36.10;;;;;;5070377;28;19964;-66
2022/04/14 08:44:01;;;;;;;89.53;20.13;;;17.50;36.20;;;;;;5056237;28;20096;-65
2022/04/14 08:46:29;;;;;;;83.60;18.50;;;17.50;37.30;;;;;;5061838;28;20167;-64
2022/04/14 08:49:02;;;;;;;68.03;17.50;;;17.50;36.80;;;;;;5053813;28;20076;-64
2022/04/14 08:51:33;;;;;;;96.50;18.45;;;17.50;36.50;;;;;;5069310;28;20080;-64
2022/04/14 08:53:59;;;;;;;88.15;19.08;;;17.40;36.20;;;;;;5055469;28;20073;-66
2022/04/14 08:56:26;;;;;;;86.10;19.63;;;17.30;36.30;;;;;;5069803;28;20182;-63
2022/04/14 08:58:57;;;;;;;67.40;18.60;;;17.30;36.40;;;;;;5055181;28;20083;-65
2022/04/14 09:01:27;;;;;;;71.25;19.73;;;17.30;36.50;;;;;;5057306;28;20101;-64
2022/04/14 09:03:58;;;;;;;75.00;19.92;;;17.30;36.30;;;;;;5056175;28;20080;-64
2022/04/14 09:06:28;;;;;;;66.30;18.27;;;17.20;36.60;;;;;;5069486;28;20089;-64
2022/04/14 09:09:00;;;;;;;79.57;20.63;;;17.20;36.50;;;;;;5058508;28;20081;-64
2022/04/14 09:11:28;;;;;;;83.22;19.73;;;17.20;37.00;;;;;;5056937;28;20073;-64
2022/04/14 09:13:55;;;;;;;73.13;20.67;;;17.20;37.40;;;;;;5069091;28;20127;-64
2022/04/14 09:16:22;;;;;;;72.88;19.67;;;17.00;37.20;;;;;;5069222;28;20089;-63
2022/04/14 09:18:49;;;;;;;83.55;19.67;;;17.00;37.20;;;;;;5054199;28;20657;-64
2022/04/14 09:21:16;;;;;;;99.45;21.27;;;17.00;37.00;;;;;;5055465;28;20085;-64
2022/04/14 09:23:49;;;;;;;;;;;16.80;37.30;;;;;;5057960;28;20069;-64
2022/04/14 09:26:23;;;;;;;83.22;20.52;;;16.80;37.80;;;;;;5056724;28;20012;-63
2022/04/14 09:29:10;;;;;;;90.70;18.40;;;16.70;37.70;;;;;;5057456;28;20084;-66
2022/04/14 09:31:50;;;;;;;86.32;20.98;;;16.70;37.80;;;;;;5053899;28;20097;-64
2022/04/14 09:34:19;;;;;;;117.60;19.75;;;16.70;38.10;;;;;;5056579;28;20100;-63
2022/04/14 09:37:08;;;;;;;93.55;20.25;;;16.70;38.20;;;;;;5054990;28;20089;-67
2022/04/14 09:39:55;;;;;;;86.90;18.15;;;16.70;38.50;;;;;;5046921;28;20077;-65
2022/04/14 09:42:26;;;;;;;82.55;19.80;;;16.60;38.40;;;;;;5055476;28;20122;-67
2022/04/14 09:44:53;;;;;;;86.80;18.98;;;16.60;38.40;;;;;;5069078;28;20479;-64
2022/04/14 09:47:24;;;;;;;89.15;18.65;;;16.60;38.80;;;;;;5068925;28;20505;-64
2022/04/14 09:49:50;;;;;;;79.55;19.50;;;16.70;39.50;;;;;;5056686;28;20069;-67
2022/04/14 09:52:17;;;;;;;74.22;19.55;;;16.70;39.50;;;;;;5054705;28;20525;-66
2022/04/14 09:54:45;;;;;;;;;;;16.60;39.90;;;;;;5058077;28;20100;-64
2022/04/14 09:57:12;;;;;;;76.50;19.13;;;16.50;39.40;;;;;;5055578;28;19973;-67
2022/04/14 09:59:38;;;;;;;104.30;21.33;;;16.40;39.60;;;;;;5068874;28;20381;-64
2022/04/14 10:02:09;;;;;;;;;;;16.40;39.60;;;;;;5055218;28;20076;-67
2022/04/14 10:04:38;;;;;;;85.32;18.38;;;16.30;39.90;;;;;;5068498;28;19985;-64
2022/04/14 10:07:08;;;;;;;63.75;17.95;;;16.40;39.30;;;;;;5056412;28;20097;-65
2022/04/14 10:09:39;;;;;;;69.55;19.63;;;16.40;39.20;;;;;;5056879;28;21071;-64
2022/04/14 10:12:27;;;;;;;75.72;19.13;;;16.30;39.20;;;;;;5054427;28;20085;-64
2022/04/14 10:15:09;;;;;;;96.50;18.02;;;16.20;39.20;;;;;;5054153;28;20072;-64
2022/04/14 10:17:40;;;;;;;82.65;17.92;;;16.20;39.60;;;;;;5055349;28;20179;-64
2022/04/14 10:20:09;;;;;;;75.07;16.88;;;16.10;39.20;;;;;;5053826;28;20204;-66
2022/04/14 10:22:37;;;;;;;50.05;12.20;;;16.00;39.20;;;;;;5055516;28;20073;-63
2022/04/14 10:25:05;;;;;;;45.85;10.45;;;16.00;35.10;;;;;;5068311;28;20437;-62
2022/04/14 10:27:33;;;;;;;37.78;8.10;;;16.20;31.40;;;;;;5053749;28;20471;-64
2022/04/14 10:30:00;;;;;;;31.95;8.57;;;16.20;30.40;;;;;;5068620;28;20092;-63
2022/04/14 10:32:27;;;;;;;30.15;7.85;;;16.40;30.20;;;;;;5068458;28;20483;-65
2022/04/14 10:34:56;;;;;;;40.53;8.10;;;16.40;30.00;;;;;;5056718;28;20077;-67
2022/04/14 10:37:32;;;;;;;38.70;8.48;;;16.40;29.80;;;;;;5054311;28;20206;-64
2022/04/14 10:39:59;;;;;;;39.08;8.05;;;16.50;30.00;;;;;;5054468;28;20178;-66
2022/04/14 10:42:29;;;;;;;35.72;9.10;;;16.50;30.40;;;;;;5052196;28;20077;-66
2022/04/14 10:44:56;;;;;;;27.75;7.30;;;16.50;30.50;;;;;;5067394;28;20090;-64
2022/04/14 10:47:52;;;;;;;31.02;7.18;;;16.50;31.00;;;;;;5054122;28;20094;-65
2022/04/14 10:50:21;;;;;;;33.67;7.78;;;16.50;32.10;;;;;;5058091;28;20139;-67
2022/04/14 10:53:09;;;;;;;34.65;8.40;;;16.40;32.40;;;;;;5035959;28;20083;-63
2022/04/14 10:55:40;;;;;;;47.88;8.70;;;16.40;33.10;;;;;;5055199;28;20089;-64
2022/04/14 10:58:07;;;;;;;33.28;7.90;;;16.40;33.50;;;;;;5053158;28;20641;-67
2022/04/14 11:00:35;;;;;;;33.90;7.78;;;16.30;33.50;;;;;;5055571;28;20085;-65
2022/04/14 11:03:07;;;;;;;24.40;7.68;;;16.30;33.90;;;;;;5053868;28;20165;-64
2022/04/14 11:05:44;;;;;;;28.25;8.40;;;16.20;33.40;;;;;;5055479;28;20196;-64
2022/04/14 11:08:21;;;;;;;35.90;7.53;;;16.00;33.60;;;;;;5057366;28;20073;-63
2022/04/14 11:11:09;;;;;;;28.92;7.50;;;16.00;34.00;;;;;;5061025;28;20073;-63
2022/04/14 11:13:52;;;;;;;31.85;7.53;;;15.90;33.90;;;;;;5056941;28;20081;-67
2022/04/14 11:16:40;;;;;;;29.02;7.80;;;16.00;34.50;;;;;;5058474;28;20121;-64
2022/04/14 11:19:22;;;;;;;31.52;7.05;;;16.00;34.90;;;;;;5070588;28;20092;-64
2022/04/14 11:22:01;;;;;;;32.28;7.65;;;16.10;34.60;;;;;;5056852;28;20112;-64
2022/04/14 11:24:36;;;;;;;32.50;7.50;;;16.00;34.60;;;;;;5070991;28;20521;-63
2022/04/14 11:27:10;;;;;;;29.05;7.00;;;16.00;34.50;;;;;;5057841;28;20080;-63
2022/04/14 11:29:36;;;;;;;31.35;6.70;;;16.00;34.70;;;;;;5070536;28;20065;-65
2022/04/14 11:32:02;;;;;;;;;;;15.90;34.80;;;;;;5056016;28;20161;-64
2022/04/14 11:34:36;;;;;;;33.72;7.78;;;15.90;34.90;;;;;;5058602;28;20007;-64
2022/04/14 11:37:03;;;;;;;31.75;6.55;;;15.90;34.90;;;;;;5070796;28;20092;-66
2022/04/14 11:39:30;;;;;;;30.70;7.18;;;15.90;35.00;;;;;;5057548;28;20070;-64
2022/04/14 11:42:17;;;;;;;33.38;6.72;;;15.80;34.80;;;;;;5043737;28;20112;-64
2022/04/14 11:44:43;;;;;;;33.20;6.43;;;15.70;34.30;;;;;;5059866;28;20069;-66
2022/04/14 11:47:11;;;;;;;31.92;6.05;;;15.70;34.40;;;;;;5057648;28;20270;-63
2022/04/14 11:49:37;;;;;;;19.77;5.80;;;15.70;34.40;;;;;;5069828;28;20088;-65
2022/04/14 11:52:06;;;;;;;55.65;7.22;;;15.70;34.90;;;;;;5057569;28;20197;-64
2022/04/14 11:54:33;;;;;;;27.77;5.88;;;15.70;34.60;;;;;;5057351;28;20128;-63
2022/04/14 11:57:06;;;;;;;23.70;5.28;;;15.50;34.30;;;;;;5057572;28;20089;-64
2022/04/14 11:59:47;;;;;;;27.13;6.75;;;15.40;34.40;;;;;;5070791;28;20554;-66
2022/04/14 12:02:18;;;;;;;42.30;7.82;;;15.40;34.50;;;;;;5059850;28;20072;-67
2022/04/14 12:04:46;;;;;;;26.65;7.75;;;15.30;34.20;;;;;;5070759;28;20590;-66
2022/04/14 12:07:13;;;;;;;32.22;7.82;;;15.30;34.30;;;;;;5056204;28;20077;-63
2022/04/14 12:09:43;;;;;;;52.95;9.77;;;15.30;35.10;;;;;;5070872;28;20182;-62
2022/04/14 12:12:14;;;;;;;35.42;9.80;;;15.30;35.10;;;;;;5057080;28;20084;-67
2022/04/14 12:14:50;;;;;;;40.33;10.00;;;15.30;35.00;;;;;;5056433;28;20127;-66
2022/04/14 12:17:23;;;;;;;48.58;10.95;;;15.30;35.30;;;;;;5058079;28;20103;-64
2022/04/14 12:19:58;;;;;;;55.00;12.70;;;15.20;35.10;;;;;;5051262;28;20085;-67
2022/04/14 12:22:28;;;;;;;73.72;14.18;;;15.20;35.20;;;;;;5058963;28;20069;-66
2022/04/14 12:24:56;;;;;;;65.38;15.65;;;15.20;35.80;;;;;;5058888;28;20069;-64
2022/04/14 12:27:27;;;;;;;70.95;16.23;;;15.20;35.10;;;;;;5056911;28;20100;-65
2022/04/14 12:30:04;;;;;;;70.60;16.83;;;15.20;36.00;;;;;;5055658;28;20075;-67
2022/04/14 12:32:31;;;;;;;87.45;18.45;;;15.20;36.00;;;;;;5055927;28;20087;-65
2022/04/14 12:34:57;;;;;;;;;;;15.20;35.90;;;;;;5071030;28;20080;-66
2022/04/14 12:37:34;;;;;;;68.78;18.88;;;15.20;35.40;;;;;;5057460;28;19977;-65
2022/04/14 12:40:17;;;;;;;65.00;17.50;;;15.10;36.00;;;;;;5056197;28;20069;-65
2022/04/14 12:42:45;;;;;;;73.40;17.63;;;15.10;35.90;;;;;;5055441;28;20096;-64